sensor_id;sensor_type;location;lat;lon;timestamp;P1;durP1;ratioP1;P2;durP2;ratioP2
16310;SDS011;8264;48.510;8.872;2023-04-23T00:00:00;6.23;;;2.33;;
16310;SDS011;8264;48.510;8.872;2023-04-23T00:02:27;3.33;;;2.13;;
16310;SDS011;8264;48.510;8.872;2023-04-23T00:04:55;3.23;;;2.40;;
16310;SDS011;8264;48.510;8.872;2023-04-23T00:07:24;3.53;;;2.37;;
16310;SDS011;8264;48.510;8.872;2023-04-23T00:09:51;4.43;;;2.40;;
16310;SDS011;8264;48.510;8.872;2023-04-23T00:12:18;3.90;;;2.07;;
16310;SDS011;8264;48.510;8.872;2023-04-23T00:14:45;4.30;;;2.50;;
16310;SDS011;8264;48.510;8.872;2023-04-23T00:17:11;4.30;;;2.13;;
16310;SDS011;8264;48.510;8.872;2023-04-23T00:19:38;3.90;;;2.07;;
16310;SDS011;8264;48.510;8.872;2023-04-23T00:22:04;5.53;;;2.40;;
16310;SDS011;8264;48.510;8.872;2023-04-23T00:24:32;4.87;;;2.50;;
16310;SDS011;8264;48.510;8.872;2023-04-23T00:27:01;6.83;;;2.63;;
16310;SDS011;8264;48.510;8.872;2023-04-23T00:29:27;7.17;;;2.20;;
16310;SDS011;8264;48.510;8.872;2023-04-23T00:31:53;5.43;;;2.30;;
16310;SDS011;8264;48.510;8.872;2023-04-23T00:34:20;2.37;;;1.80;;
16310;SDS011;8264;48.510;8.872;2023-04-23T00:36:46;3.33;;;1.90;;
16310;SDS011;8264;48.510;8.872;2023-04-23T00:39:13;2.73;;;1.63;;
16310;SDS011;8264;48.510;8.872;2023-04-23T00:41:41;2.70;;;1.70;;
16310;SDS011;8264;48.510;8.872;2023-04-23T00:44:08;3.50;;;1.70;;
16310;SDS011;8264;48.510;8.872;2023-04-23T00:46:35;2.60;;;1.40;;
16310;SDS011;8264;48.510;8.872;2023-04-23T00:49:01;2.37;;;1.30;;
16310;SDS011;8264;48.510;8.872;2023-04-23T00:51:28;2.43;;;1.30;;
16310;SDS011;8264;48.510;8.872;2023-04-23T00:53:56;1.83;;;1.33;;
16310;SDS011;8264;48.510;8.872;2023-04-23T00:56:22;1.80;;;1.40;;
16310;SDS011;8264;48.510;8.872;2023-04-23T00:58:50;1.60;;;1.20;;
16310;SDS011;8264;48.510;8.872;2023-04-23T01:01:17;2.27;;;1.50;;
16310;SDS011;8264;48.510;8.872;2023-04-23T01:03:45;2.20;;;1.30;;
16310;SDS011;8264;48.510;8.872;2023-04-23T01:06:11;2.57;;;1.20;;
16310;SDS011;8264;48.510;8.872;2023-04-23T01:08:38;1.57;;;1.27;;
16310;SDS011;8264;48.510;8.872;2023-04-23T01:11:06;2.37;;;1.23;;
16310;SDS011;8264;48.510;8.872;2023-04-23T01:13:32;1.17;;;1.07;;
16310;SDS011;8264;48.510;8.872;2023-04-23T01:16:01;2.20;;;1.60;;
16310;SDS011;8264;48.510;8.872;2023-04-23T01:18:27;1.00;;;0.90;;
16310;SDS011;8264;48.510;8.872;2023-04-23T01:20:55;1.87;;;1.23;;
16310;SDS011;8264;48.510;8.872;2023-04-23T01:23:22;1.60;;;1.10;;
16310;SDS011;8264;48.510;8.872;2023-04-23T01:25:51;2.10;;;1.43;;
16310;SDS011;8264;48.510;8.872;2023-04-23T01:28:17;1.40;;;1.30;;
16310;SDS011;8264;48.510;8.872;2023-04-23T01:30:44;2.77;;;1.20;;
16310;SDS011;8264;48.510;8.872;2023-04-23T01:33:11;1.87;;;1.47;;
16310;SDS011;8264;48.510;8.872;2023-04-23T01:35:39;2.30;;;1.30;;
16310;SDS011;8264;48.510;8.872;2023-04-23T01:38:06;1.60;;;1.20;;
16310;SDS011;8264;48.510;8.872;2023-04-23T01:40:35;1.43;;;1.20;;
16310;SDS011;8264;48.510;8.872;2023-04-23T01:43:02;2.80;;;1.50;;
16310;SDS011;8264;48.510;8.872;2023-04-23T01:45:30;4.13;;;1.40;;
16310;SDS011;8264;48.510;8.872;2023-04-23T01:47:56;2.60;;;1.00;;
16310;SDS011;8264;48.510;8.872;2023-04-23T01:50:23;1.50;;;0.97;;
16310;SDS011;8264;48.510;8.872;2023-04-23T01:52:51;1.87;;;1.43;;
16310;SDS011;8264;48.510;8.872;2023-04-23T01:55:18;1.47;;;1.13;;
16310;SDS011;8264;48.510;8.872;2023-04-23T01:57:46;3.00;;;1.50;;
16310;SDS011;8264;48.510;8.872;2023-04-23T02:00:13;1.93;;;1.43;;
16310;SDS011;8264;48.510;8.872;2023-04-23T02:02:42;2.50;;;1.50;;
16310;SDS011;8264;48.510;8.872;2023-04-23T02:05:10;2.73;;;1.40;;
16310;SDS011;8264;48.510;8.872;2023-04-23T02:07:38;1.43;;;1.33;;
16310;SDS011;8264;48.510;8.872;2023-04-23T02:10:05;2.40;;;1.30;;
16310;SDS011;8264;48.510;8.872;2023-04-23T02:12:32;3.10;;;1.40;;
16310;SDS011;8264;48.510;8.872;2023-04-23T02:15:00;2.17;;;1.60;;
16310;SDS011;8264;48.510;8.872;2023-04-23T02:17:26;1.53;;;1.37;;
16310;SDS011;8264;48.510;8.872;2023-04-23T02:19:53;1.93;;;1.40;;
16310;SDS011;8264;48.510;8.872;2023-04-23T02:22:20;1.47;;;1.20;;
16310;SDS011;8264;48.510;8.872;2023-04-23T02:24:49;3.27;;;1.30;;
16310;SDS011;8264;48.510;8.872;2023-04-23T02:27:15;2.10;;;1.40;;
16310;SDS011;8264;48.510;8.872;2023-04-23T02:29:42;1.33;;;1.10;;
16310;SDS011;8264;48.510;8.872;2023-04-23T02:32:10;1.70;;;1.60;;
16310;SDS011;8264;48.510;8.872;2023-04-23T02:34:37;1.93;;;1.37;;
16310;SDS011;8264;48.510;8.872;2023-04-23T02:37:03;3.30;;;1.77;;
16310;SDS011;8264;48.510;8.872;2023-04-23T02:39:30;1.63;;;1.40;;
16310;SDS011;8264;48.510;8.872;2023-04-23T02:41:56;1.40;;;1.30;;
16310;SDS011;8264;48.510;8.872;2023-04-23T02:44:23;4.20;;;1.60;;
16310;SDS011;8264;48.510;8.872;2023-04-23T02:46:50;2.30;;;1.63;;
16310;SDS011;8264;48.510;8.872;2023-04-23T02:49:18;3.03;;;1.90;;
16310;SDS011;8264;48.510;8.872;2023-04-23T02:51:44;2.17;;;1.60;;
16310;SDS011;8264;48.510;8.872;2023-04-23T02:54:11;1.40;;;1.30;;
16310;SDS011;8264;48.510;8.872;2023-04-23T02:56:37;1.50;;;1.20;;
16310;SDS011;8264;48.510;8.872;2023-04-23T02:59:04;2.17;;;1.30;;
16310;SDS011;8264;48.510;8.872;2023-04-23T03:01:32;2.10;;;1.30;;
16310;SDS011;8264;48.510;8.872;2023-04-23T03:03:59;1.70;;;1.40;;
16310;SDS011;8264;48.510;8.872;2023-04-23T03:06:27;1.37;;;1.20;;
16310;SDS011;8264;48.510;8.872;2023-04-23T03:08:53;1.37;;;1.27;;
16310;SDS011;8264;48.510;8.872;2023-04-23T03:11:20;1.90;;;1.13;;
16310;SDS011;8264;48.510;8.872;2023-04-23T03:13:46;2.40;;;1.23;;
16310;SDS011;8264;48.510;8.872;2023-04-23T03:16:13;1.57;;;1.13;;
16310;SDS011;8264;48.510;8.872;2023-04-23T03:18:39;1.70;;;1.50;;
16310;SDS011;8264;48.510;8.872;2023-04-23T03:21:06;1.63;;;1.40;;
16310;SDS011;8264;48.510;8.872;2023-04-23T03:23:34;2.33;;;1.10;;
16310;SDS011;8264;48.510;8.872;2023-04-23T03:26:01;1.27;;;1.10;;
16310;SDS011;8264;48.510;8.872;2023-04-23T03:28:29;1.40;;;1.07;;
16310;SDS011;8264;48.510;8.872;2023-04-23T03:30:55;0.90;;;0.87;;
16310;SDS011;8264;48.510;8.872;2023-04-23T03:33:22;2.30;;;1.20;;
16310;SDS011;8264;48.510;8.872;2023-04-23T03:35:48;1.20;;;1.10;;
16310;SDS011;8264;48.510;8.872;2023-04-23T03:38:14;1.70;;;1.10;;
16310;SDS011;8264;48.510;8.872;2023-04-23T03:40:42;3.33;;;0.80;;
16310;SDS011;8264;48.510;8.872;2023-04-23T03:43:09;3.13;;;1.07;;
16310;SDS011;8264;48.510;8.872;2023-04-23T03:45:36;1.30;;;1.20;;
16310;SDS011;8264;48.510;8.872;2023-04-23T03:48:02;0.90;;;0.80;;
16310;SDS011;8264;48.510;8.872;2023-04-23T03:50:29;1.10;;;1.00;;
16310;SDS011;8264;48.510;8.872;2023-04-23T03:52:58;1.47;;;0.90;;
16310;SDS011;8264;48.510;8.872;2023-04-23T03:55:26;1.30;;;1.17;;
16310;SDS011;8264;48.510;8.872;2023-04-23T03:57:53;1.27;;;1.00;;
16310;SDS011;8264;48.510;8.872;2023-04-23T04:00:20;0.70;;;0.70;;
16310;SDS011;8264;48.510;8.872;2023-04-23T04:02:46;1.00;;;0.90;;
16310;SDS011;8264;48.510;8.872;2023-04-23T04:05:13;0.73;;;0.70;;
16310;SDS011;8264;48.510;8.872;2023-04-23T04:07:39;1.40;;;1.00;;
16310;SDS011;8264;48.510;8.872;2023-04-23T04:10:06;2.13;;;0.93;;
16310;SDS011;8264;48.510;8.872;2023-04-23T04:12:33;1.00;;;0.90;;
16310;SDS011;8264;48.510;8.872;2023-04-23T04:15:01;0.80;;;0.80;;
16310;SDS011;8264;48.510;8.872;2023-04-23T04:17:28;1.40;;;0.90;;
16310;SDS011;8264;48.510;8.872;2023-04-23T04:19:54;1.10;;;1.00;;
16310;SDS011;8264;48.510;8.872;2023-04-23T04:22:21;1.23;;;0.70;;
16310;SDS011;8264;48.510;8.872;2023-04-23T04:24:48;2.23;;;0.90;;
16310;SDS011;8264;48.510;8.872;2023-04-23T04:27:16;0.90;;;0.80;;
16310;SDS011;8264;48.510;8.872;2023-04-23T04:29:43;1.63;;;0.80;;
16310;SDS011;8264;48.510;8.872;2023-04-23T04:32:10;0.90;;;0.80;;
16310;SDS011;8264;48.510;8.872;2023-04-23T04:34:37;2.57;;;0.80;;
16310;SDS011;8264;48.510;8.872;2023-04-23T04:37:04;0.83;;;0.80;;
16310;SDS011;8264;48.510;8.872;2023-04-23T04:39:30;1.43;;;1.00;;
16310;SDS011;8264;48.510;8.872;2023-04-23T04:41:57;1.00;;;0.90;;
16310;SDS011;8264;48.510;8.872;2023-04-23T04:44:23;2.93;;;0.80;;
16310;SDS011;8264;48.510;8.872;2023-04-23T04:46:50;0.80;;;0.73;;
16310;SDS011;8264;48.510;8.872;2023-04-23T04:49:18;0.97;;;0.80;;
16310;SDS011;8264;48.510;8.872;2023-04-23T04:51:45;0.70;;;0.70;;
16310;SDS011;8264;48.510;8.872;2023-04-23T04:54:12;2.60;;;0.70;;
16310;SDS011;8264;48.510;8.872;2023-04-23T04:56:38;1.37;;;0.90;;
16310;SDS011;8264;48.510;8.872;2023-04-23T04:59:05;1.00;;;0.80;;
16310;SDS011;8264;48.510;8.872;2023-04-23T05:01:31;1.43;;;1.00;;
16310;SDS011;8264;48.510;8.872;2023-04-23T05:03:58;1.03;;;0.80;;
16310;SDS011;8264;48.510;8.872;2023-04-23T05:06:26;1.40;;;0.97;;
16310;SDS011;8264;48.510;8.872;2023-04-23T05:08:53;0.70;;;0.67;;
16310;SDS011;8264;48.510;8.872;2023-04-23T05:11:19;1.00;;;0.90;;
16310;SDS011;8264;48.510;8.872;2023-04-23T05:13:46;1.63;;;0.90;;
16310;SDS011;8264;48.510;8.872;2023-04-23T05:16:13;1.20;;;1.00;;
16310;SDS011;8264;48.510;8.872;2023-04-23T05:18:40;1.03;;;0.90;;
16310;SDS011;8264;48.510;8.872;2023-04-23T05:21:06;1.30;;;0.93;;
16310;SDS011;8264;48.510;8.872;2023-04-23T05:23:35;1.13;;;0.90;;
16310;SDS011;8264;48.510;8.872;2023-04-23T05:26:01;1.07;;;0.90;;
16310;SDS011;8264;48.510;8.872;2023-04-23T05:28:28;1.00;;;0.90;;
16310;SDS011;8264;48.510;8.872;2023-04-23T05:30:55;0.70;;;0.70;;
16310;SDS011;8264;48.510;8.872;2023-04-23T05:33:22;1.57;;;0.80;;
16310;SDS011;8264;48.510;8.872;2023-04-23T05:35:49;2.37;;;1.00;;
16310;SDS011;8264;48.510;8.872;2023-04-23T05:38:15;0.97;;;0.93;;
16310;SDS011;8264;48.510;8.872;2023-04-23T05:40:43;1.10;;;0.70;;
16310;SDS011;8264;48.510;8.872;2023-04-23T05:43:10;1.03;;;0.93;;
16310;SDS011;8264;48.510;8.872;2023-04-23T05:45:37;1.00;;;0.90;;
16310;SDS011;8264;48.510;8.872;2023-04-23T05:48:03;1.10;;;0.97;;
16310;SDS011;8264;48.510;8.872;2023-04-23T05:50:30;1.67;;;0.90;;
16310;SDS011;8264;48.510;8.872;2023-04-23T05:52:56;0.83;;;0.70;;
16310;SDS011;8264;48.510;8.872;2023-04-23T05:55:23;1.53;;;1.10;;
16310;SDS011;8264;48.510;8.872;2023-04-23T05:57:51;1.77;;;1.20;;
16310;SDS011;8264;48.510;8.872;2023-04-23T06:00:18;1.40;;;1.10;;
16310;SDS011;8264;48.510;8.872;2023-04-23T06:02:44;1.73;;;1.10;;
16310;SDS011;8264;48.510;8.872;2023-04-23T06:05:11;1.10;;;1.00;;
16310;SDS011;8264;48.510;8.872;2023-04-23T06:07:39;1.33;;;0.80;;
16310;SDS011;8264;48.510;8.872;2023-04-23T06:10:07;1.87;;;1.10;;
16310;SDS011;8264;48.510;8.872;2023-04-23T06:12:34;1.63;;;1.10;;
16310;SDS011;8264;48.510;8.872;2023-04-23T06:15:05;3.63;;;0.80;;
16310;SDS011;8264;48.510;8.872;2023-04-23T06:17:32;2.30;;;0.90;;
16310;SDS011;8264;48.510;8.872;2023-04-23T06:19:58;2.07;;;0.80;;
16310;SDS011;8264;48.510;8.872;2023-04-23T06:22:25;1.07;;;0.80;;
16310;SDS011;8264;48.510;8.872;2023-04-23T06:24:51;0.80;;;0.60;;
16310;SDS011;8264;48.510;8.872;2023-04-23T06:27:18;3.07;;;0.90;;
16310;SDS011;8264;48.510;8.872;2023-04-23T06:29:44;1.07;;;0.60;;
16310;SDS011;8264;48.510;8.872;2023-04-23T06:32:13;2.50;;;1.20;;
16310;SDS011;8264;48.510;8.872;2023-04-23T06:34:39;1.07;;;0.80;;
16310;SDS011;8264;48.510;8.872;2023-04-23T06:37:06;1.40;;;0.80;;
16310;SDS011;8264;48.510;8.872;2023-04-23T06:39:32;1.53;;;0.90;;
16310;SDS011;8264;48.510;8.872;2023-04-23T06:41:59;0.90;;;0.70;;
16310;SDS011;8264;48.510;8.872;2023-04-23T06:44:25;1.00;;;0.70;;
16310;SDS011;8264;48.510;8.872;2023-04-23T06:46:52;0.60;;;0.60;;
16310;SDS011;8264;48.510;8.872;2023-04-23T06:49:20;0.80;;;0.70;;
16310;SDS011;8264;48.510;8.872;2023-04-23T06:51:46;0.83;;;0.70;;
16310;SDS011;8264;48.510;8.872;2023-04-23T06:54:13;1.17;;;0.70;;
16310;SDS011;8264;48.510;8.872;2023-04-23T06:56:39;1.13;;;1.00;;
16310;SDS011;8264;48.510;8.872;2023-04-23T06:59:06;1.53;;;0.90;;
16310;SDS011;8264;48.510;8.872;2023-04-23T07:01:33;1.67;;;0.80;;
16310;SDS011;8264;48.510;8.872;2023-04-23T07:03:59;1.33;;;0.70;;
16310;SDS011;8264;48.510;8.872;2023-04-23T07:06:27;0.53;;;0.53;;
16310;SDS011;8264;48.510;8.872;2023-04-23T07:08:55;1.50;;;0.70;;
16310;SDS011;8264;48.510;8.872;2023-04-23T07:11:21;0.53;;;0.53;;
16310;SDS011;8264;48.510;8.872;2023-04-23T07:13:48;0.97;;;0.63;;
16310;SDS011;8264;48.510;8.872;2023-04-23T07:16:15;1.53;;;0.60;;
16310;SDS011;8264;48.510;8.872;2023-04-23T07:18:42;2.47;;;0.80;;
16310;SDS011;8264;48.510;8.872;2023-04-23T07:21:08;0.77;;;0.70;;
16310;SDS011;8264;48.510;8.872;2023-04-23T07:23:36;0.80;;;0.80;;
16310;SDS011;8264;48.510;8.872;2023-04-23T07:26:03;2.10;;;0.77;;
16310;SDS011;8264;48.510;8.872;2023-04-23T07:28:29;1.33;;;0.80;;
16310;SDS011;8264;48.510;8.872;2023-04-23T07:30:56;1.13;;;0.90;;
16310;SDS011;8264;48.510;8.872;2023-04-23T07:33:22;1.10;;;0.77;;
16310;SDS011;8264;48.510;8.872;2023-04-23T07:35:49;1.10;;;0.70;;
16310;SDS011;8264;48.510;8.872;2023-04-23T07:38:16;2.03;;;0.90;;
16310;SDS011;8264;48.510;8.872;2023-04-23T07:40:44;1.43;;;0.90;;
16310;SDS011;8264;48.510;8.872;2023-04-23T07:43:11;1.47;;;0.90;;
16310;SDS011;8264;48.510;8.872;2023-04-23T07:45:38;1.13;;;0.70;;
16310;SDS011;8264;48.510;8.872;2023-04-23T07:48:05;0.60;;;0.60;;
16310;SDS011;8264;48.510;8.872;2023-04-23T07:50:32;1.80;;;0.90;;
16310;SDS011;8264;48.510;8.872;2023-04-23T07:52:58;1.43;;;1.00;;
16310;SDS011;8264;48.510;8.872;2023-04-23T07:55:25;1.17;;;0.70;;
16310;SDS011;8264;48.510;8.872;2023-04-23T07:57:52;1.30;;;0.97;;
16310;SDS011;8264;48.510;8.872;2023-04-23T08:00:19;1.73;;;0.80;;
16310;SDS011;8264;48.510;8.872;2023-04-23T08:02:45;1.00;;;0.87;;
16310;SDS011;8264;48.510;8.872;2023-04-23T08:05:12;1.07;;;0.80;;
16310;SDS011;8264;48.510;8.872;2023-04-23T08:07:39;0.67;;;0.67;;
16310;SDS011;8264;48.510;8.872;2023-04-23T08:10:06;1.93;;;0.83;;
16310;SDS011;8264;48.510;8.872;2023-04-23T08:12:33;1.73;;;0.83;;
16310;SDS011;8264;48.510;8.872;2023-04-23T08:15:01;0.80;;;0.80;;
16310;SDS011;8264;48.510;8.872;2023-04-23T08:17:28;0.90;;;0.80;;
16310;SDS011;8264;48.510;8.872;2023-04-23T08:19:55;1.00;;;0.90;;
16310;SDS011;8264;48.510;8.872;2023-04-23T08:22:22;1.03;;;0.90;;
16310;SDS011;8264;48.510;8.872;2023-04-23T08:24:48;1.43;;;0.87;;
16310;SDS011;8264;48.510;8.872;2023-04-23T08:27:15;1.40;;;0.90;;
16310;SDS011;8264;48.510;8.872;2023-04-23T08:29:42;2.13;;;1.10;;
16310;SDS011;8264;48.510;8.872;2023-04-23T08:32:09;1.07;;;0.97;;
16310;SDS011;8264;48.510;8.872;2023-04-23T08:34:37;1.07;;;0.80;;
16310;SDS011;8264;48.510;8.872;2023-04-23T08:37:03;1.20;;;0.90;;
16310;SDS011;8264;48.510;8.872;2023-04-23T08:39:31;1.70;;;0.90;;
16310;SDS011;8264;48.510;8.872;2023-04-23T08:42:01;1.03;;;0.80;;
16310;SDS011;8264;48.510;8.872;2023-04-23T08:44:30;0.90;;;0.73;;
16310;SDS011;8264;48.510;8.872;2023-04-23T08:46:57;0.63;;;0.63;;
16310;SDS011;8264;48.510;8.872;2023-04-23T08:49:28;1.67;;;0.90;;
16310;SDS011;8264;48.510;8.872;2023-04-23T08:52:00;1.03;;;0.87;;
16310;SDS011;8264;48.510;8.872;2023-04-23T08:54:30;1.87;;;0.90;;
16310;SDS011;8264;48.510;8.872;2023-04-23T08:56:57;0.90;;;0.80;;
16310;SDS011;8264;48.510;8.872;2023-04-23T08:59:24;1.70;;;0.80;;
16310;SDS011;8264;48.510;8.872;2023-04-23T09:01:51;2.00;;;1.03;;
16310;SDS011;8264;48.510;8.872;2023-04-23T09:04:18;0.80;;;0.80;;
16310;SDS011;8264;48.510;8.872;2023-04-23T09:06:46;1.53;;;0.80;;
16310;SDS011;8264;48.510;8.872;2023-04-23T09:09:13;0.97;;;0.83;;
16310;SDS011;8264;48.510;8.872;2023-04-23T09:11:40;1.27;;;0.83;;
16310;SDS011;8264;48.510;8.872;2023-04-23T09:14:07;2.37;;;0.80;;
16310;SDS011;8264;48.510;8.872;2023-04-23T09:16:34;0.90;;;0.80;;
16310;SDS011;8264;48.510;8.872;2023-04-23T09:19:01;1.00;;;0.90;;
16310;SDS011;8264;48.510;8.872;2023-04-23T09:21:28;1.10;;;0.80;;
16310;SDS011;8264;48.510;8.872;2023-04-23T09:23:56;3.00;;;0.90;;
16310;SDS011;8264;48.510;8.872;2023-04-23T09:26:23;1.50;;;1.10;;
16310;SDS011;8264;48.510;8.872;2023-04-23T09:28:49;3.83;;;0.90;;
16310;SDS011;8264;48.510;8.872;2023-04-23T09:31:19;1.97;;;0.93;;
16310;SDS011;8264;48.510;8.872;2023-04-23T09:33:49;1.40;;;0.83;;
16310;SDS011;8264;48.510;8.872;2023-04-23T09:36:16;1.47;;;0.80;;
16310;SDS011;8264;48.510;8.872;2023-04-23T09:38:45;1.53;;;0.80;;
16310;SDS011;8264;48.510;8.872;2023-04-23T09:43:56;0.77;;;0.67;;
16310;SDS011;8264;48.510;8.872;2023-04-23T09:46:32;1.30;;;0.73;;
16310;SDS011;8264;48.510;8.872;2023-04-23T09:49:00;1.63;;;0.80;;
16310;SDS011;8264;48.510;8.872;2023-04-23T09:51:28;3.03;;;1.00;;
16310;SDS011;8264;48.510;8.872;2023-04-23T09:53:55;1.93;;;0.90;;
16310;SDS011;8264;48.510;8.872;2023-04-23T09:56:22;2.50;;;1.00;;
16310;SDS011;8264;48.510;8.872;2023-04-23T09:58:51;1.27;;;0.90;;
16310;SDS011;8264;48.510;8.872;2023-04-23T10:01:18;1.00;;;0.90;;
16310;SDS011;8264;48.510;8.872;2023-04-23T10:03:53;1.27;;;0.80;;
16310;SDS011;8264;48.510;8.872;2023-04-23T10:06:20;2.50;;;0.93;;
16310;SDS011;8264;48.510;8.872;2023-04-23T10:08:52;4.73;;;0.90;;
16310;SDS011;8264;48.510;8.872;2023-04-23T10:11:20;2.23;;;0.70;;
16310;SDS011;8264;48.510;8.872;2023-04-23T10:13:48;3.17;;;0.90;;
16310;SDS011;8264;48.510;8.872;2023-04-23T10:16:16;5.23;;;2.40;;
16310;SDS011;8264;48.510;8.872;2023-04-23T10:18:43;2.03;;;1.30;;
16310;SDS011;8264;48.510;8.872;2023-04-23T10:21:10;5.57;;;3.10;;
16310;SDS011;8264;48.510;8.872;2023-04-23T10:23:37;3.07;;;2.27;;
16310;SDS011;8264;48.510;8.872;2023-04-23T10:26:05;3.97;;;2.20;;
16310;SDS011;8264;48.510;8.872;2023-04-23T10:28:33;3.23;;;1.77;;
16310;SDS011;8264;48.510;8.872;2023-04-23T10:31:00;1.00;;;0.90;;
16310;SDS011;8264;48.510;8.872;2023-04-23T10:33:29;2.20;;;1.50;;
16310;SDS011;8264;48.510;8.872;2023-04-23T10:35:56;2.50;;;1.50;;
16310;SDS011;8264;48.510;8.872;2023-04-23T10:38:23;1.47;;;0.90;;
16310;SDS011;8264;48.510;8.872;2023-04-23T10:40:52;1.60;;;1.00;;
16310;SDS011;8264;48.510;8.872;2023-04-23T10:43:20;1.80;;;0.77;;
16310;SDS011;8264;48.510;8.872;2023-04-23T10:45:48;2.43;;;1.30;;
16310;SDS011;8264;48.510;8.872;2023-04-23T10:48:15;1.50;;;0.80;;
16310;SDS011;8264;48.510;8.872;2023-04-23T10:50:42;2.07;;;1.10;;
16310;SDS011;8264;48.510;8.872;2023-04-23T10:53:17;1.57;;;0.90;;
16310;SDS011;8264;48.510;8.872;2023-04-23T10:55:44;1.67;;;0.93;;
16310;SDS011;8264;48.510;8.872;2023-04-23T10:58:12;3.10;;;1.00;;
16310;SDS011;8264;48.510;8.872;2023-04-23T11:00:43;1.83;;;1.00;;
16310;SDS011;8264;48.510;8.872;2023-04-23T11:03:25;1.10;;;0.90;;
16310;SDS011;8264;48.510;8.872;2023-04-23T11:05:55;1.20;;;1.03;;
16310;SDS011;8264;48.510;8.872;2023-04-23T11:08:22;1.73;;;0.80;;
16310;SDS011;8264;48.510;8.872;2023-04-23T11:10:53;0.70;;;0.70;;
16310;SDS011;8264;48.510;8.872;2023-04-23T11:13:21;1.37;;;0.87;;
16310;SDS011;8264;48.510;8.872;2023-04-23T11:19:00;1.40;;;0.70;;
16310;SDS011;8264;48.510;8.872;2023-04-23T11:24:30;2.70;;;0.90;;
16310;SDS011;8264;48.510;8.872;2023-04-23T11:26:57;1.13;;;0.73;;
16310;SDS011;8264;48.510;8.872;2023-04-23T11:29:26;0.60;;;0.60;;
16310;SDS011;8264;48.510;8.872;2023-04-23T11:31:53;1.80;;;0.90;;
16310;SDS011;8264;48.510;8.872;2023-04-23T11:34:21;1.13;;;0.70;;
16310;SDS011;8264;48.510;8.872;2023-04-23T11:36:49;1.53;;;0.80;;
16310;SDS011;8264;48.510;8.872;2023-04-23T11:39:18;1.13;;;0.70;;
16310;SDS011;8264;48.510;8.872;2023-04-23T11:41:45;1.17;;;0.80;;
16310;SDS011;8264;48.510;8.872;2023-04-23T11:44:14;2.27;;;0.70;;
16310;SDS011;8264;48.510;8.872;2023-04-23T11:46:40;1.07;;;0.70;;
16310;SDS011;8264;48.510;8.872;2023-04-23T11:49:07;1.07;;;0.70;;
16310;SDS011;8264;48.510;8.872;2023-04-23T11:51:34;0.70;;;0.70;;
16310;SDS011;8264;48.510;8.872;2023-04-23T11:54:07;1.47;;;0.90;;
16310;SDS011;8264;48.510;8.872;2023-04-23T11:56:35;2.23;;;0.83;;
16310;SDS011;8264;48.510;8.872;2023-04-23T11:59:02;1.03;;;0.80;;
16310;SDS011;8264;48.510;8.872;2023-04-23T12:01:44;1.00;;;0.80;;
16310;SDS011;8264;48.510;8.872;2023-04-23T12:04:12;1.10;;;0.70;;
16310;SDS011;8264;48.510;8.872;2023-04-23T12:06:40;1.23;;;0.87;;
16310;SDS011;8264;48.510;8.872;2023-04-23T12:09:07;0.80;;;0.70;;
16310;SDS011;8264;48.510;8.872;2023-04-23T12:11:37;1.00;;;0.70;;
16310;SDS011;8264;48.510;8.872;2023-04-23T12:14:04;1.43;;;0.70;;
16310;SDS011;8264;48.510;8.872;2023-04-23T12:16:32;1.03;;;0.80;;
16310;SDS011;8264;48.510;8.872;2023-04-23T12:19:00;1.17;;;0.70;;
16310;SDS011;8264;48.510;8.872;2023-04-23T12:21:27;1.20;;;0.90;;
16310;SDS011;8264;48.510;8.872;2023-04-23T12:23:54;0.90;;;0.70;;
16310;SDS011;8264;48.510;8.872;2023-04-23T12:26:21;2.00;;;0.70;;
16310;SDS011;8264;48.510;8.872;2023-04-23T12:28:52;1.93;;;0.80;;
16310;SDS011;8264;48.510;8.872;2023-04-23T12:31:21;0.80;;;0.60;;
16310;SDS011;8264;48.510;8.872;2023-04-23T12:33:52;1.30;;;0.80;;
16310;SDS011;8264;48.510;8.872;2023-04-23T12:36:25;2.30;;;0.93;;
16310;SDS011;8264;48.510;8.872;2023-04-23T12:38:55;1.43;;;0.90;;
16310;SDS011;8264;48.510;8.872;2023-04-23T12:42:02;4.27;;;1.00;;
16310;SDS011;8264;48.510;8.872;2023-04-23T12:44:32;0.97;;;0.77;;
16310;SDS011;8264;48.510;8.872;2023-04-23T12:47:00;2.10;;;0.73;;
16310;SDS011;8264;48.510;8.872;2023-04-23T12:49:29;0.83;;;0.70;;
16310;SDS011;8264;48.510;8.872;2023-04-23T12:51:56;2.73;;;0.80;;
16310;SDS011;8264;48.510;8.872;2023-04-23T12:54:25;2.13;;;0.80;;
16310;SDS011;8264;48.510;8.872;2023-04-23T12:56:53;1.17;;;0.73;;
16310;SDS011;8264;48.510;8.872;2023-04-23T12:59:20;3.50;;;0.90;;
16310;SDS011;8264;48.510;8.872;2023-04-23T13:01:48;0.90;;;0.70;;
16310;SDS011;8264;48.510;8.872;2023-04-23T13:04:15;1.67;;;1.10;;
16310;SDS011;8264;48.510;8.872;2023-04-23T13:06:43;0.90;;;0.80;;
16310;SDS011;8264;48.510;8.872;2023-04-23T13:09:10;2.30;;;1.10;;
16310;SDS011;8264;48.510;8.872;2023-04-23T13:11:37;1.07;;;0.70;;
16310;SDS011;8264;48.510;8.872;2023-04-23T13:14:05;2.23;;;0.87;;
16310;SDS011;8264;48.510;8.872;2023-04-23T13:16:32;1.47;;;0.80;;
16310;SDS011;8264;48.510;8.872;2023-04-23T13:19:01;1.17;;;0.80;;
16310;SDS011;8264;48.510;8.872;2023-04-23T13:21:29;2.80;;;0.70;;
16310;SDS011;8264;48.510;8.872;2023-04-23T13:23:56;0.90;;;0.70;;
16310;SDS011;8264;48.510;8.872;2023-04-23T13:26:23;1.13;;;0.67;;
16310;SDS011;8264;48.510;8.872;2023-04-23T13:28:50;1.47;;;0.90;;
16310;SDS011;8264;48.510;8.872;2023-04-23T13:31:18;1.40;;;0.70;;
16310;SDS011;8264;48.510;8.872;2023-04-23T13:33:48;1.27;;;0.87;;
16310;SDS011;8264;48.510;8.872;2023-04-23T13:36:19;2.60;;;1.13;;
16310;SDS011;8264;48.510;8.872;2023-04-23T13:38:47;1.83;;;0.90;;
16310;SDS011;8264;48.510;8.872;2023-04-23T13:41:14;2.37;;;0.83;;
16310;SDS011;8264;48.510;8.872;2023-04-23T13:43:41;2.23;;;0.70;;
16310;SDS011;8264;48.510;8.872;2023-04-23T13:46:08;0.97;;;0.73;;
16310;SDS011;8264;48.510;8.872;2023-04-23T13:48:35;1.87;;;0.80;;
16310;SDS011;8264;48.510;8.872;2023-04-23T13:51:02;3.33;;;0.83;;
16310;SDS011;8264;48.510;8.872;2023-04-23T13:53:31;1.67;;;0.90;;
16310;SDS011;8264;48.510;8.872;2023-04-23T13:56:00;2.33;;;0.90;;
16310;SDS011;8264;48.510;8.872;2023-04-23T13:58:27;3.80;;;1.00;;
16310;SDS011;8264;48.510;8.872;2023-04-23T14:01:42;1.70;;;0.77;;
16310;SDS011;8264;48.510;8.872;2023-04-23T14:04:10;1.93;;;0.80;;
16310;SDS011;8264;48.510;8.872;2023-04-23T14:06:37;1.57;;;0.90;;
16310;SDS011;8264;48.510;8.872;2023-04-23T14:09:03;0.73;;;0.70;;
16310;SDS011;8264;48.510;8.872;2023-04-23T14:11:30;2.33;;;0.90;;
16310;SDS011;8264;48.510;8.872;2023-04-23T14:13:56;1.20;;;0.80;;
16310;SDS011;8264;48.510;8.872;2023-04-23T14:16:25;1.93;;;1.00;;
16310;SDS011;8264;48.510;8.872;2023-04-23T14:18:52;0.90;;;0.70;;
16310;SDS011;8264;48.510;8.872;2023-04-23T14:21:20;1.70;;;1.00;;
16310;SDS011;8264;48.510;8.872;2023-04-23T14:23:50;2.37;;;0.73;;
16310;SDS011;8264;48.510;8.872;2023-04-23T14:26:22;3.30;;;1.17;;
16310;SDS011;8264;48.510;8.872;2023-04-23T14:28:55;1.97;;;0.90;;
16310;SDS011;8264;48.510;8.872;2023-04-23T14:31:22;1.27;;;0.80;;
16310;SDS011;8264;48.510;8.872;2023-04-23T14:33:48;1.63;;;0.83;;
16310;SDS011;8264;48.510;8.872;2023-04-23T14:36:17;3.47;;;1.00;;
16310;SDS011;8264;48.510;8.872;2023-04-23T14:38:43;4.43;;;1.30;;
16310;SDS011;8264;48.510;8.872;2023-04-23T14:41:10;1.90;;;1.03;;
16310;SDS011;8264;48.510;8.872;2023-04-23T14:43:36;2.33;;;1.00;;
16310;SDS011;8264;48.510;8.872;2023-04-23T14:46:03;4.83;;;1.30;;
16310;SDS011;8264;48.510;8.872;2023-04-23T14:48:30;2.53;;;1.00;;
16310;SDS011;8264;48.510;8.872;2023-04-23T14:50:57;2.90;;;1.10;;
16310;SDS011;8264;48.510;8.872;2023-04-23T14:53:25;2.40;;;1.00;;
16310;SDS011;8264;48.510;8.872;2023-04-23T14:55:52;3.80;;;1.60;;
16310;SDS011;8264;48.510;8.872;2023-04-23T14:58:19;3.10;;;1.70;;
16310;SDS011;8264;48.510;8.872;2023-04-23T15:00:51;3.83;;;1.60;;
16310;SDS011;8264;48.510;8.872;2023-04-23T15:03:19;3.37;;;1.30;;
16310;SDS011;8264;48.510;8.872;2023-04-23T15:05:46;2.13;;;1.33;;
16310;SDS011;8264;48.510;8.872;2023-04-23T15:08:12;3.17;;;1.63;;
16310;SDS011;8264;48.510;8.872;2023-04-23T15:10:40;5.83;;;2.40;;